ULOO

Details ICAO ULOO (PKV)
Name PSKOV
Region Russia
Timezone Europe/Moscow (UTC+3.0)
Plans Departing 20
Arriving 34
Stats Elevation 154 ft / 47 m (AMSL)
Location 57.783872° 28.396468°
Runways 2
Magnetic Variation 9.396° E
Sunrise 2018-05-27 01:23:43 UTC / 2018-05-27 04:23:43 Local
Sunset 2018-05-27 18:46:17 UTC / 2018-05-27 21:46:17 Local
Advertisement - Login to hide

Runways

ID Width Length Bearing (true) Bearing (mag) Surface Threshold Offset Overrun Length
01 144 ft / 44 m 6,551 ft / 1,997 m 17.98° 8.58° Concrete 0 ft / 0 m 885 ft / 270 m
01R 144 ft / 44 m 5,656 ft / 1,724 m 18.38° 8.98° Dirt 0 ft / 0 m 0 ft / 0 m
19 144 ft / 44 m 6,551 ft / 1,997 m 197.99° 188.59° Concrete 0 ft / 0 m 150 ft / 46 m
19L 144 ft / 44 m 5,656 ft / 1,724 m 198.38° 188.98° Dirt 0 ft / 0 m 0 ft / 0 m

Map

Weather


0- 5 10 15 20 25 30 35+ Temperature / ° C

Clouds and Precipitation
Forecast for 2018-05-27 00:00 UTC. Updated 2 hours ago

Ground ~20,000 ft ~40,000 ft Winds

METAR

ULOO 270100Z AUTO 00000MPS 8000 // NCD 09/08 Q1026 RMK QFE765

TAF

Not found

Frequencies

Tower 122.00 MHz TWR
Warning: Do not use this data for real-world aviation or navigation. No guarantee of current accuracy is given.